createdAt,value
2024-03-11T00:02:00.148Z,36.03
2024-03-11T00:04:31.221Z,36.58
2024-03-11T00:07:00.972Z,36.90
2024-03-11T00:09:34.902Z,38.10
2024-03-11T00:12:05.510Z,37.13
2024-03-11T00:14:35.850Z,36.28
2024-03-11T00:19:35.111Z,35.85
2024-03-11T00:22:04.633Z,36.83
2024-03-11T00:24:34.402Z,36.47
2024-03-11T00:27:10.369Z,37.08
2024-03-11T00:29:41.570Z,37.28
2024-03-11T00:32:12.108Z,38.08
2024-03-11T00:34:44.154Z,37.20
2024-03-11T00:37:15.010Z,37.00
2024-03-11T00:39:45.051Z,38.97
2024-03-11T00:42:14.710Z,38.35
2024-03-11T00:44:44.211Z,37.42
2024-03-11T00:47:14.419Z,36.97
2024-03-11T00:49:44.228Z,38.05
2024-03-11T00:52:13.725Z,37.33
2024-03-11T00:54:44.481Z,36.90
2024-03-11T00:57:14.272Z,37.25
2024-03-11T00:59:46.144Z,37.95
2024-03-11T01:02:17.091Z,38.55
2024-03-11T01:04:47.554Z,36.47
2024-03-11T01:07:25.212Z,37.28
2024-03-11T01:09:58.049Z,36.33
2024-03-11T01:12:28.998Z,36.90
2024-03-11T01:14:58.550Z,36.78
2024-03-11T01:17:28.059Z,38.00
2024-03-11T01:20:00.107Z,36.97
2024-03-11T01:22:29.850Z,36.17
2024-03-11T01:25:01.142Z,36.35
2024-03-11T01:27:30.664Z,36.63
2024-03-11T01:30:04.833Z,37.33
2024-03-11T01:32:34.840Z,36.05
2024-03-11T01:35:09.861Z,34.85
2024-03-11T01:37:39.733Z,35.17
2024-03-11T01:40:13.489Z,38.63
2024-03-11T01:42:46.098Z,35.88
2024-03-11T01:45:17.189Z,37.03
2024-03-11T01:47:47.023Z,36.00
2024-03-11T01:50:21.381Z,36.95
2024-03-11T01:52:59.276Z,36.60
2024-03-11T01:55:30.149Z,36.00
2024-03-11T01:58:01.829Z,34.28
2024-03-11T02:00:32.390Z,35.88
2024-03-11T02:03:01.927Z,35.50
2024-03-11T02:05:31.621Z,36.03
2024-03-11T02:08:04.711Z,35.90
2024-03-11T02:10:34.490Z,35.40
2024-03-11T02:13:04.005Z,34.28
2024-03-11T02:15:34.278Z,34.10
2024-03-11T02:18:04.134Z,36.05
2024-03-11T02:20:34.307Z,35.90
2024-03-11T02:23:08.529Z,35.30
2024-03-11T02:25:38.707Z,35.28
2024-03-11T02:28:09.264Z,35.83
2024-03-11T02:30:40.513Z,35.70
2024-03-11T02:33:10.067Z,34.55
2024-03-11T02:35:39.662Z,34.80
2024-03-11T02:38:10.334Z,34.72
2024-03-11T02:40:41.479Z,32.08
2024-03-11T02:43:12.756Z,32.85
2024-03-11T02:45:42.397Z,32.00
2024-03-11T02:48:11.831Z,33.17
2024-03-11T02:50:41.855Z,33.33
2024-03-11T02:53:13.008Z,33.70
2024-03-11T02:55:42.964Z,32.53
2024-03-11T02:58:12.806Z,33.38
2024-03-11T03:00:44.915Z,31.58
2024-03-11T03:03:14.727Z,32.13
2024-03-11T03:05:44.616Z,31.15
2024-03-11T03:08:14.124Z,30.38
2024-03-11T03:10:43.775Z,29.17
2024-03-11T03:13:13.493Z,30.65
2024-03-11T03:15:43.242Z,29.08
2024-03-11T03:18:12.791Z,29.77
2024-03-11T03:20:44.340Z,30.58
2024-03-11T03:23:14.301Z,28.85
2024-03-11T03:25:43.867Z,28.88
2024-03-11T03:28:17.824Z,27.17
2024-03-11T03:30:49.137Z,29.73
2024-03-11T03:33:19.806Z,30.15
2024-03-11T03:35:49.404Z,29.02
2024-03-11T03:38:21.231Z,30.35
2024-03-11T03:40:51.218Z,28.52
2024-03-11T03:43:22.428Z,29.58
2024-03-11T03:45:51.909Z,29.17
2024-03-11T03:48:21.444Z,29.87
2024-03-11T03:50:53.193Z,29.50
2024-03-11T03:53:22.721Z,29.25
2024-03-11T03:55:55.773Z,28.73
2024-03-11T03:58:25.613Z,29.27
2024-03-11T04:00:55.155Z,28.48
2024-03-11T04:03:25.608Z,29.35
2024-03-11T04:05:55.270Z,27.33
2024-03-11T04:08:25.853Z,27.50
2024-03-11T04:10:55.619Z,27.63
2024-03-11T04:13:29.416Z,29.35
2024-03-11T04:15:59.104Z,29.10
2024-03-11T04:18:28.790Z,27.17
2024-03-11T04:21:00.847Z,28.00
2024-03-11T04:23:31.336Z,28.17
2024-03-11T04:26:03.501Z,26.92
2024-03-11T04:28:32.982Z,26.33
2024-03-11T04:31:03.141Z,27.43
2024-03-11T04:33:34.711Z,28.40
2024-03-11T04:36:04.381Z,25.67
2024-03-11T04:38:34.145Z,25.75
2024-03-11T04:41:06.457Z,27.80
2024-03-11T04:43:38.923Z,26.98
2024-03-11T04:46:12.123Z,27.55
2024-03-11T04:48:41.748Z,26.73
2024-03-11T04:51:12.513Z,25.70
2024-03-11T04:53:42.238Z,27.92
2024-03-11T04:56:11.883Z,26.60
2024-03-11T04:58:42.339Z,27.38
2024-03-11T05:01:12.188Z,28.58
2024-03-11T05:03:41.788Z,29.55
2024-03-11T05:06:12.933Z,27.35
2024-03-11T05:08:43.264Z,28.77
2024-03-11T05:11:14.933Z,28.52
2024-03-11T05:13:51.941Z,28.48
2024-03-11T05:16:25.641Z,28.05
2024-03-11T05:18:55.754Z,27.90
2024-03-11T05:21:27.679Z,28.55
2024-03-11T05:23:57.195Z,29.58
2024-03-11T05:26:27.384Z,29.08
2024-03-11T05:31:33.000Z,29.80
2024-03-11T05:34:03.973Z,27.20
2024-03-11T05:36:33.460Z,30.02
2024-03-11T05:39:03.066Z,30.33
2024-03-11T05:41:32.992Z,31.73
2024-03-11T05:44:02.746Z,31.27
2024-03-11T05:46:32.336Z,29.48
2024-03-11T05:49:04.617Z,28.52
2024-03-11T05:51:50.606Z,30.02
2024-03-11T05:54:21.519Z,30.05
2024-03-11T05:56:59.997Z,29.00
2024-03-11T05:59:30.407Z,28.65
2024-03-11T06:02:00.662Z,29.33
2024-03-11T06:07:00.176Z,30.80
2024-03-11T06:12:02.127Z,29.30
2024-03-11T06:14:31.816Z,30.90
2024-03-11T06:17:05.538Z,30.58
2024-03-11T06:19:36.083Z,31.83
2024-03-11T06:22:05.762Z,31.77
2024-03-11T06:24:36.267Z,30.73
2024-03-11T06:27:06.812Z,30.48
2024-03-11T06:29:37.605Z,29.50
2024-03-11T06:32:08.187Z,31.38
2024-03-11T06:34:38.410Z,30.60
2024-03-11T06:39:37.509Z,30.10
2024-03-11T06:42:07.360Z,30.63
2024-03-11T06:44:41.495Z,30.27
2024-03-11T06:47:11.753Z,29.77
2024-03-11T06:49:43.290Z,30.98
2024-03-11T06:52:13.901Z,30.52
2024-03-11T06:54:43.506Z,30.30
2024-03-11T06:57:14.534Z,31.15
2024-03-11T06:59:49.009Z,30.15
2024-03-11T07:02:23.005Z,30.63
2024-03-11T07:04:53.202Z,29.58
2024-03-11T07:09:54.615Z,30.63
2024-03-11T07:12:24.316Z,29.08
2024-03-11T07:14:53.889Z,29.25
2024-03-11T07:17:25.120Z,28.98
2024-03-11T07:19:55.733Z,30.45
2024-03-11T07:22:25.941Z,30.55
2024-03-11T07:27:24.333Z,28.38
2024-03-11T07:29:57.328Z,30.63
2024-03-11T07:32:29.227Z,27.92
2024-03-11T07:35:01.758Z,30.15
2024-03-11T07:37:31.460Z,29.67
2024-03-11T07:40:01.122Z,28.80
2024-03-11T07:42:31.980Z,30.77
2024-03-11T07:45:01.523Z,29.90
2024-03-11T07:47:31.069Z,28.60
2024-03-11T07:50:01.453Z,29.85
2024-03-11T07:52:31.507Z,29.95
2024-03-11T07:57:32.397Z,28.80
2024-03-11T08:00:03.450Z,28.15
2024-03-11T08:02:33.920Z,30.60
2024-03-11T08:05:05.583Z,29.65
2024-03-11T08:07:37.058Z,28.55
2024-03-11T08:10:09.018Z,27.80
2024-03-11T08:12:40.284Z,28.40
2024-03-11T08:15:13.200Z,28.40
2024-03-11T08:17:48.325Z,28.58
2024-03-11T08:20:20.025Z,30.23
2024-03-11T08:22:57.047Z,28.83
2024-03-11T08:25:30.293Z,27.73
2024-03-11T08:28:06.987Z,29.80
2024-03-11T08:30:36.644Z,30.00
2024-03-11T08:33:06.495Z,28.50
2024-03-11T08:35:37.880Z,28.92
2024-03-11T08:38:09.802Z,29.95
2024-03-11T08:40:42.140Z,28.58
2024-03-11T08:43:12.173Z,29.38
2024-03-11T08:45:44.114Z,28.88
2024-03-11T08:48:19.105Z,30.05
2024-03-11T08:50:48.808Z,29.75
2024-03-11T08:53:18.283Z,29.00
2024-03-11T08:55:47.862Z,26.38
2024-03-11T08:58:23.974Z,29.60
2024-03-11T09:00:55.505Z,28.25
2024-03-11T09:03:27.687Z,30.27
2024-03-11T09:05:58.107Z,28.58
2024-03-11T09:08:30.525Z,29.50
2024-03-11T09:11:00.065Z,29.58
2024-03-11T09:13:32.375Z,29.80
2024-03-11T09:16:02.072Z,29.52
2024-03-11T09:18:33.754Z,29.60
2024-03-11T09:21:03.424Z,29.30
2024-03-11T09:23:35.520Z,28.80
2024-03-11T09:26:07.926Z,28.92
2024-03-11T09:28:39.326Z,30.50
2024-03-11T09:31:10.046Z,31.20
2024-03-11T09:33:41.450Z,30.35
2024-03-11T09:36:14.709Z,30.92
2024-03-11T09:38:44.482Z,29.15
2024-03-11T09:41:17.475Z,30.55
2024-03-11T09:43:53.477Z,30.17
2024-03-11T09:46:24.075Z,28.92
2024-03-11T09:48:56.572Z,29.98
2024-03-11T09:51:26.711Z,28.83
2024-03-11T09:56:28.122Z,31.33
2024-03-11T09:59:02.979Z,31.35
2024-03-11T10:01:34.333Z,31.23
2024-03-11T10:04:05.907Z,29.50
2024-03-11T10:06:41.074Z,30.67
2024-03-11T10:09:22.252Z,30.35
2024-03-11T10:12:11.383Z,29.77
2024-03-11T10:14:48.210Z,30.42
2024-03-11T10:17:26.366Z,31.48
2024-03-11T10:20:03.490Z,29.85
2024-03-11T10:22:38.311Z,30.02
2024-03-11T10:25:10.251Z,29.55
2024-03-11T10:27:45.555Z,31.52
2024-03-11T10:30:27.278Z,31.48
2024-03-11T10:32:59.666Z,31.05
2024-03-11T10:35:36.150Z,29.75
2024-03-11T10:38:16.450Z,31.08
2024-03-11T10:40:47.528Z,31.42
2024-03-11T10:43:25.863Z,30.65
2024-03-11T10:45:57.847Z,30.42
2024-03-11T10:48:31.846Z,30.13
2024-03-11T10:51:05.341Z,30.27
2024-03-11T10:53:34.964Z,30.27
2024-03-11T10:56:10.049Z,30.00
2024-03-11T10:58:46.138Z,30.55
2024-03-11T11:01:20.842Z,30.52
2024-03-11T11:03:54.905Z,30.92
2024-03-11T11:06:29.799Z,30.55
2024-03-11T11:09:02.646Z,30.50
2024-03-11T11:11:32.752Z,30.70
2024-03-11T11:16:34.258Z,31.35
2024-03-11T11:19:04.539Z,32.22
2024-03-11T11:21:35.692Z,32.78
2024-03-11T11:24:31.165Z,32.13
2024-03-11T11:27:05.979Z,33.10
2024-03-11T11:29:36.351Z,31.85
2024-03-11T11:32:15.762Z,32.55
2024-03-11T11:34:48.253Z,33.00
2024-03-11T11:37:40.428Z,31.88
2024-03-11T11:40:33.796Z,32.70
2024-03-11T11:43:04.850Z,33.42
2024-03-11T11:46:00.394Z,33.97
2024-03-11T11:48:31.751Z,33.33
2024-03-11T11:51:05.259Z,34.10
2024-03-11T11:53:46.013Z,32.60
2024-03-11T11:56:25.253Z,34.42
2024-03-11T11:59:09.069Z,31.15
2024-03-11T12:01:59.714Z,32.95
2024-03-11T12:04:34.179Z,33.33
2024-03-11T12:07:06.368Z,34.13
2024-03-11T12:09:37.941Z,32.00
2024-03-11T12:12:08.413Z,34.42
2024-03-11T12:14:40.733Z,34.17
2024-03-11T12:17:14.158Z,33.78
2024-03-11T12:19:43.760Z,34.05
2024-03-11T12:22:21.003Z,33.95
2024-03-11T12:25:01.284Z,33.90
2024-03-11T12:27:30.965Z,34.05
2024-03-11T12:30:09.538Z,35.35
2024-03-11T12:32:42.357Z,34.25
2024-03-11T12:35:21.493Z,34.75
2024-03-11T12:37:51.465Z,35.88
2024-03-11T12:40:22.341Z,36.67
2024-03-11T12:42:54.528Z,36.08
2024-03-11T12:45:44.820Z,39.35
2024-03-11T12:48:18.324Z,37.88
2024-03-11T12:50:55.842Z,37.72
2024-03-11T12:53:27.424Z,37.92
2024-03-11T12:56:18.405Z,37.85
2024-03-11T12:58:48.207Z,36.85
2024-03-11T13:01:19.892Z,37.55
2024-03-11T13:03:49.888Z,35.65
2024-03-11T13:06:24.308Z,36.95
2024-03-11T13:08:53.939Z,36.90
2024-03-11T13:11:23.479Z,37.35
2024-03-11T13:13:56.569Z,37.08
2024-03-11T13:16:27.169Z,36.45
2024-03-11T13:18:59.385Z,35.88
2024-03-11T13:21:33.925Z,36.35
2024-03-11T13:24:05.589Z,36.50
2024-03-11T13:26:35.582Z,36.55
2024-03-11T13:29:05.285Z,37.47
2024-03-11T13:31:35.265Z,36.17
2024-03-11T13:34:08.051Z,36.53
2024-03-11T13:36:37.970Z,36.53
2024-03-11T13:39:28.853Z,35.47
2024-03-11T13:42:02.283Z,37.08
2024-03-11T13:44:32.828Z,37.70
2024-03-11T13:49:36.964Z,37.55
2024-03-11T13:52:11.247Z,37.63
2024-03-11T13:54:42.148Z,38.60
2024-03-11T13:57:13.335Z,41.50
2024-03-11T13:59:44.618Z,44.10
2024-03-11T14:02:15.005Z,44.05
2024-03-11T14:04:46.640Z,46.25
2024-03-11T14:07:16.436Z,44.90
2024-03-11T14:09:48.949Z,44.67
2024-03-11T14:12:19.073Z,43.72
2024-03-11T14:14:50.630Z,44.22
2024-03-11T14:17:25.521Z,44.20
2024-03-11T14:20:00.395Z,45.15
2024-03-11T14:22:32.115Z,42.45
2024-03-11T14:25:05.521Z,41.45
2024-03-11T14:27:41.247Z,41.55
2024-03-11T14:30:20.064Z,40.83
2024-03-11T14:32:51.383Z,40.15
2024-03-11T14:35:30.098Z,40.75
2024-03-11T14:38:00.820Z,40.53
2024-03-11T14:40:36.137Z,38.78
2024-03-11T14:43:12.150Z,39.13
2024-03-11T14:45:54.062Z,37.97
2024-03-11T14:48:30.417Z,40.70
2024-03-11T14:51:01.097Z,39.65
2024-03-11T14:53:33.430Z,39.10
2024-03-11T14:56:08.419Z,39.63
2024-03-11T14:58:38.754Z,37.63
2024-03-11T15:03:42.279Z,38.63
2024-03-11T15:06:13.626Z,40.58
2024-03-11T15:08:52.278Z,39.47
2024-03-11T15:11:26.742Z,38.55
2024-03-11T15:13:58.376Z,37.92
2024-03-11T15:16:32.642Z,38.75
2024-03-11T15:19:10.402Z,38.85
2024-03-11T15:21:41.028Z,37.30
2024-03-11T15:24:13.526Z,37.13
2024-03-11T15:26:52.641Z,37.78
2024-03-11T15:29:24.191Z,38.70
2024-03-11T15:31:55.731Z,40.25
2024-03-11T15:34:29.285Z,38.97
2024-03-11T15:37:01.935Z,39.28
2024-03-11T15:39:38.486Z,39.35
2024-03-11T15:42:12.580Z,39.92
2024-03-11T15:44:42.542Z,38.58
2024-03-11T15:47:12.198Z,39.90
2024-03-11T15:49:46.942Z,40.15
2024-03-11T15:52:16.693Z,39.45
2024-03-11T15:54:48.851Z,40.53
2024-03-11T15:57:18.579Z,38.60
2024-03-11T15:59:49.832Z,40.55
2024-03-11T16:02:19.473Z,41.15
2024-03-11T16:04:49.108Z,41.78
2024-03-11T16:07:21.625Z,40.65
2024-03-11T16:10:13.917Z,40.70
2024-03-11T16:12:47.251Z,39.03
2024-03-11T16:15:17.140Z,40.63
2024-03-11T16:17:47.162Z,39.55
2024-03-11T16:20:30.670Z,39.50
2024-03-11T16:23:07.627Z,39.58
2024-03-11T16:25:40.206Z,41.65
2024-03-11T16:28:12.257Z,37.60
2024-03-11T16:30:42.912Z,38.08
2024-03-11T16:33:14.367Z,37.58
2024-03-11T16:35:45.681Z,39.22
2024-03-11T16:38:18.995Z,37.33
2024-03-11T16:40:48.780Z,37.90
2024-03-11T16:43:18.498Z,36.53
2024-03-11T16:45:52.670Z,37.58
2024-03-11T16:48:24.168Z,36.85
2024-03-11T16:50:55.424Z,35.60
2024-03-11T16:53:25.091Z,35.28
2024-03-11T16:55:57.729Z,35.03
2024-03-11T16:58:27.410Z,32.00
2024-03-11T17:00:58.031Z,32.25
2024-03-11T17:03:30.762Z,30.98
2024-03-11T17:06:02.586Z,31.77
2024-03-11T17:08:33.356Z,30.02
2024-03-11T17:11:05.266Z,28.35
2024-03-11T17:13:35.898Z,28.65
2024-03-11T17:16:06.502Z,27.58
2024-03-11T17:18:37.384Z,26.85
2024-03-11T17:21:13.674Z,27.25
2024-03-11T17:23:45.888Z,25.90
2024-03-11T17:26:15.827Z,26.45
2024-03-11T17:28:46.688Z,25.85
2024-03-11T17:31:18.653Z,24.98
2024-03-11T17:33:50.920Z,24.45
2024-03-11T17:36:21.352Z,23.25
2024-03-11T17:38:51.049Z,23.00
2024-03-11T17:41:20.606Z,23.50
2024-03-11T17:43:51.385Z,23.27
2024-03-11T17:46:21.566Z,23.00
2024-03-11T17:49:16.264Z,21.80
2024-03-11T17:51:45.852Z,24.25
2024-03-11T17:54:18.315Z,22.87
2024-03-11T17:56:47.943Z,22.77
2024-03-11T17:59:18.876Z,22.55
2024-03-11T18:01:48.604Z,22.55
2024-03-11T18:04:21.586Z,22.88
2024-03-11T18:06:51.422Z,22.55
2024-03-11T18:09:34.589Z,21.42
2024-03-11T18:12:05.834Z,23.48
2024-03-11T18:14:35.617Z,22.63
2024-03-11T18:17:08.049Z,22.33
2024-03-11T18:19:37.750Z,21.77
2024-03-11T18:22:07.433Z,20.60
2024-03-11T18:24:37.195Z,19.35
2024-03-11T18:27:08.050Z,20.20
2024-03-11T18:29:41.140Z,18.80
2024-03-11T18:32:14.296Z,18.83
2024-03-11T18:34:44.229Z,17.75
2024-03-11T18:37:13.921Z,17.13
2024-03-11T18:39:43.421Z,18.10
2024-03-11T18:42:13.836Z,17.30
2024-03-11T18:44:43.406Z,17.20
2024-03-11T18:47:12.928Z,16.03
2024-03-11T18:49:42.654Z,15.57
2024-03-11T18:52:12.075Z,16.95
2024-03-11T18:54:43.803Z,15.63
2024-03-11T18:57:13.446Z,15.75
2024-03-11T18:59:42.942Z,15.82
2024-03-11T19:02:13.203Z,14.80
2024-03-11T19:07:14.552Z,15.07
2024-03-11T19:09:44.753Z,14.55
2024-03-11T19:12:14.957Z,15.05
2024-03-11T19:14:45.701Z,14.57
2024-03-11T19:17:17.333Z,13.57
2024-03-11T19:19:47.960Z,13.32
2024-03-11T19:22:18.647Z,12.52
2024-03-11T19:24:48.256Z,13.38
2024-03-11T19:27:17.882Z,12.73
2024-03-11T19:29:52.858Z,12.82
2024-03-11T19:32:22.725Z,11.95
2024-03-11T19:34:52.718Z,12.30
2024-03-11T19:37:38.521Z,12.07
2024-03-11T19:40:20.684Z,12.27
2024-03-11T19:43:32.859Z,11.65
2024-03-11T19:46:27.561Z,11.35
2024-03-11T19:49:33.767Z,12.15
2024-03-11T19:52:27.540Z,11.55
2024-03-11T19:55:33.257Z,11.48
2024-03-11T19:58:12.673Z,11.65
2024-03-11T20:01:11.731Z,10.88
2024-03-11T20:04:01.194Z,11.63
2024-03-11T20:07:01.291Z,11.32
2024-03-11T20:09:51.980Z,11.23
2024-03-11T20:12:31.658Z,11.10
2024-03-11T20:15:18.766Z,11.15
2024-03-11T20:18:19.776Z,11.07
2024-03-11T20:21:07.618Z,10.55
2024-03-11T20:23:49.168Z,11.43
2024-03-11T20:26:59.847Z,11.57
2024-03-11T20:29:50.851Z,11.98
2024-03-11T20:32:26.108Z,10.82
2024-03-11T20:34:56.602Z,10.45
2024-03-11T20:37:26.337Z,10.70
2024-03-11T20:39:55.899Z,11.55
2024-03-11T20:42:25.370Z,11.77
2024-03-11T20:44:55.027Z,10.60
2024-03-11T20:47:24.465Z,11.73
2024-03-11T20:49:54.325Z,11.18
2024-03-11T20:52:26.316Z,11.55
2024-03-11T20:54:57.177Z,11.40
2024-03-11T20:57:27.955Z,11.68
2024-03-11T20:59:58.823Z,11.25
2024-03-11T21:02:28.517Z,10.13
2024-03-11T21:04:58.192Z,10.85
2024-03-11T21:07:27.854Z,10.30
2024-03-11T21:09:57.831Z,10.27
2024-03-11T21:12:27.445Z,10.40
2024-03-11T21:14:57.130Z,11.27
2024-03-11T21:17:29.711Z,11.48
2024-03-11T21:20:14.845Z,10.90
2024-03-11T21:22:44.441Z,10.75
2024-03-11T21:25:30.403Z,12.00
2024-03-11T21:27:59.970Z,10.45
2024-03-11T21:30:29.525Z,11.10
2024-03-11T21:32:59.157Z,10.60
2024-03-11T21:35:28.610Z,11.07
2024-03-11T21:38:08.561Z,10.68
2024-03-11T21:40:42.765Z,10.60
2024-03-11T21:43:12.274Z,10.93
2024-03-11T21:45:41.875Z,10.63
2024-03-11T21:48:12.533Z,10.18
2024-03-11T21:50:42.063Z,10.95
2024-03-11T21:53:12.657Z,10.90
2024-03-11T21:55:44.358Z,10.23
2024-03-11T21:58:14.138Z,10.32
2024-03-11T22:00:43.999Z,9.77
2024-03-11T22:03:16.372Z,9.57
2024-03-11T22:05:46.506Z,10.55
2024-03-11T22:08:16.128Z,9.95
2024-03-11T22:10:45.643Z,10.83
2024-03-11T22:13:15.116Z,11.07
2024-03-11T22:15:45.548Z,10.37
2024-03-11T22:18:15.722Z,11.18
2024-03-11T22:20:45.883Z,10.35
2024-03-11T22:23:15.541Z,10.50
2024-03-11T22:25:47.064Z,10.02
2024-03-11T22:28:19.415Z,11.10
2024-03-11T22:30:50.606Z,10.98
2024-03-11T22:33:20.093Z,10.88
2024-03-11T22:35:51.362Z,11.90
2024-03-11T22:38:20.906Z,11.18
2024-03-11T22:40:50.731Z,12.00
2024-03-11T22:43:20.226Z,11.32
2024-03-11T22:45:50.853Z,11.25
2024-03-11T22:48:20.565Z,11.45
2024-03-11T22:50:53.171Z,12.07
2024-03-11T22:53:24.214Z,12.23
2024-03-11T22:55:53.929Z,12.25
2024-03-11T22:58:24.232Z,12.60
2024-03-11T23:00:57.357Z,12.80
2024-03-11T23:03:27.740Z,11.88
2024-03-11T23:08:26.773Z,13.18
2024-03-11T23:10:57.946Z,12.63
2024-03-11T23:13:27.728Z,13.05
2024-03-11T23:15:57.395Z,12.85
2024-03-11T23:18:27.182Z,13.23
2024-03-11T23:20:57.405Z,12.25
2024-03-11T23:23:27.092Z,12.10
2024-03-11T23:25:57.963Z,12.27
2024-03-11T23:28:27.755Z,13.02
2024-03-11T23:31:00.172Z,12.90
2024-03-11T23:33:32.940Z,12.35
2024-03-11T23:36:04.612Z,12.27
2024-03-11T23:38:34.642Z,11.57
2024-03-11T23:41:05.495Z,12.27
2024-03-11T23:43:35.701Z,12.43
2024-03-11T23:46:06.218Z,13.20
2024-03-11T23:48:36.379Z,11.07
2024-03-11T23:51:06.057Z,10.82
2024-03-11T23:53:35.529Z,10.93
2024-03-11T23:56:05.149Z,11.15
2024-03-11T23:58:35.402Z,10.73
